Moneta, VA (24121)

10:42 AM EDT on June 26, 2017 (GMT -0400)
Smith Mountain Lake @ Hales Ford Bridge | | Change Station

Elev 825 ft 37.15 °N, 79.68 °W | Updated 7 seconds ago

Clear
Clear
74.8 °F
Feels Like 77 °F
N
0.0
Wind Variable Wind from North
Gusts 0.0 mph

Today
High -- | Low -- °F
--% Chance of Precip.
Yesterday
High -- | Low -- °F
Precip. -- in
Pressure 30.15 in
Visibility 10.0 miles
Clouds Clear
Heat Index 77 °F
Dew Point 60 °F
Humidity 61%
Rainfall 0.00 in
Snow Depth Not available.
6:00 AM 8:42 PM
Waxing Crescent, 9% visible
METAR KROA 261354Z 00000KT 10SM CLR 22/11 A3017 RMK AO2 SLP208 T02170111
Pressure 30.15 in
Visibility 10.0 miles
Clouds Clear
Heat Index 77 °F
Dew Point 60 °F
Humidity 61%
Rainfall 0.00 in
Snow Depth Not available.
6:00 AM 8:42 PM
Waxing Crescent, 9% visible
METAR KROA 261354Z 00000KT 10SM CLR 22/11 A3017 RMK AO2 SLP208 T02170111

Get Severe Weather Alerts

Thanks for signing up!

Be on the lookout for a verification email in your inbox.

You'll start receiving the daily forecast at 6 AM.

×

10-Day Weather Forecast

Almanac

Astronomy

Jun. 26, 2017 Rise Set
Actual Time
Civil Twilight
Nautical Twilight
Astronomical Twilight
Moon
Length of Visible Light
Length of Day
Tomorrow will be .
, % of the Moon is Illuminated

Today's Extremes

State Highs State Lows

Community

WunderPhotos

Category 6

Welcome to Category 6. This is the collective home for Weather Underground's featured writeups by Dr. Jeff Masters (right), Bob Henson (left), Chris Burt, and other regular contributors.

Nearby

Air Quality

  Air Quality AQ Index Pollutant
Not available.

Snow Depth

Station Depth Elevation

Earthquake Activity

City Distance Mag. Time & Date
Minimum magnitude displayed is 2.5.

Coastal Water Temperatures

Place Temperature

Stations

Nearby Weather Stations

Station Location Temp. Windchill Dew Point Humidity Wind Precip. Elev Updated Type
                   

Watches & Warnings

There are currently no watches in effect.